createdAt,value
2023-03-12T12:57:11.330Z,78.00
2023-03-12T12:58:12.839Z,78.24
2023-03-12T12:59:12.477Z,79.17
2023-03-12T13:00:12.471Z,78.86
2023-03-12T13:01:12.419Z,77.87
2023-03-12T13:02:12.416Z,77.59
2023-03-12T13:03:12.350Z,77.86
2023-03-12T13:04:12.487Z,77.21
2023-03-12T13:05:12.379Z,77.72
2023-03-12T13:06:12.335Z,77.31
2023-03-12T13:07:12.517Z,76.07
2023-03-12T13:08:12.416Z,76.76
2023-03-12T13:09:12.529Z,76.83
2023-03-12T13:10:12.319Z,74.19
2023-03-12T13:11:19.338Z,72.27
2023-03-12T13:12:14.317Z,73.74
2023-03-12T13:13:12.315Z,74.84
2023-03-12T13:14:12.272Z,74.67
2023-03-12T13:15:12.282Z,75.04
2023-03-12T13:16:12.518Z,74.36
2023-03-12T13:17:12.280Z,75.22
2023-03-12T13:18:12.260Z,75.94
2023-03-12T13:19:12.308Z,77.07
2023-03-12T13:20:12.340Z,76.62
2023-03-12T13:21:12.271Z,74.63
2023-03-12T13:22:12.300Z,75.93
2023-03-12T13:23:12.942Z,74.40
2023-03-12T13:24:12.236Z,74.15
2023-03-12T13:25:12.220Z,74.02
2023-03-12T13:26:12.205Z,73.91
2023-03-12T13:27:12.235Z,74.19
2023-03-12T13:28:12.261Z,71.97
2023-03-12T13:29:13.003Z,70.16
2023-03-12T13:30:13.175Z,70.03
2023-03-12T13:31:12.324Z,70.06
2023-03-12T13:32:12.160Z,68.93
2023-03-12T13:33:12.212Z,69.79
2023-03-12T13:34:12.215Z,68.73
2023-03-12T13:35:12.156Z,69.31
2023-03-12T13:36:12.198Z,68.41
2023-03-12T13:37:12.175Z,69.54
2023-03-12T13:38:12.139Z,68.87
2023-03-12T13:39:12.126Z,67.95
2023-03-12T13:40:12.102Z,67.60
2023-03-12T13:41:12.967Z,69.34
2023-03-12T13:42:12.085Z,69.27
2023-03-12T13:43:12.092Z,71.52
2023-03-12T13:44:12.112Z,71.69
2023-03-12T13:45:12.097Z,72.41
2023-03-12T13:46:12.181Z,72.41
2023-03-12T13:47:12.153Z,73.61
2023-03-12T13:48:12.178Z,74.80
2023-03-12T13:49:12.047Z,74.84
2023-03-12T13:50:12.051Z,75.76
2023-03-12T13:51:12.034Z,75.42
2023-03-12T13:52:12.129Z,74.22
2023-03-12T13:53:12.011Z,75.63
2023-03-12T13:54:12.074Z,75.29
2023-03-12T13:55:12.041Z,74.67
2023-03-12T13:56:11.986Z,74.53
2023-03-12T13:57:11.985Z,76.59
2023-03-12T13:58:11.985Z,76.69
2023-03-12T13:59:12.019Z,75.87
2023-03-12T14:00:12.007Z,77.17
2023-03-12T14:01:12.017Z,75.80
2023-03-12T14:02:12.008Z,74.12
2023-03-12T14:03:11.998Z,73.74
2023-03-12T14:04:12.023Z,73.40
2023-03-12T14:05:12.269Z,74.08
2023-03-12T14:06:11.968Z,73.16
2023-03-12T14:07:13.307Z,72.17
2023-03-12T14:08:11.943Z,74.12
2023-03-12T14:09:11.947Z,73.71
2023-03-12T14:10:11.910Z,73.40
2023-03-12T14:11:11.945Z,73.50
2023-03-12T14:12:11.956Z,74.05
2023-03-12T14:13:11.901Z,74.29
2023-03-12T14:14:11.892Z,75.42
2023-03-12T14:15:11.966Z,76.79
2023-03-12T14:16:11.986Z,75.87
2023-03-12T14:17:11.885Z,77.10
2023-03-12T14:18:12.042Z,77.00
2023-03-12T14:19:11.980Z,76.38
2023-03-12T14:20:11.920Z,76.79
2023-03-12T14:21:11.879Z,76.35
2023-03-12T14:22:11.909Z,76.62
2023-03-12T14:23:11.841Z,78.06
2023-03-12T14:24:11.910Z,77.92
2023-03-12T14:25:11.832Z,77.24
2023-03-12T14:26:11.866Z,78.27
2023-03-12T14:27:12.040Z,77.96
2023-03-12T14:28:11.955Z,77.51
2023-03-12T14:29:11.861Z,76.83
2023-03-12T14:30:11.842Z,77.65
2023-03-12T14:31:12.681Z,77.89
2023-03-12T14:32:11.800Z,78.78
2023-03-12T14:33:11.809Z,78.06
2023-03-12T14:34:11.913Z,78.03
2023-03-12T14:35:12.005Z,77.72
2023-03-12T14:36:11.775Z,77.41
2023-03-12T14:37:11.799Z,77.62
2023-03-12T14:38:11.800Z,77.62
2023-03-12T14:39:11.750Z,77.72
2023-03-12T14:40:11.752Z,76.97
2023-03-12T14:41:11.743Z,77.06
2023-03-12T14:42:11.705Z,77.17
2023-03-12T14:43:11.714Z,77.20
2023-03-12T14:44:11.714Z,77.06
2023-03-12T14:45:11.780Z,77.20
2023-03-12T14:46:11.793Z,76.97
2023-03-12T14:47:12.380Z,77.86
2023-03-12T14:48:11.804Z,78.23
2023-03-12T14:49:11.761Z,78.64
2023-03-12T14:50:11.853Z,78.50
2023-03-12T14:51:12.473Z,78.99
2023-03-12T14:52:11.689Z,77.92
2023-03-12T14:53:11.650Z,77.99
2023-03-12T14:54:11.651Z,77.82
2023-03-12T14:55:11.658Z,78.20
2023-03-12T14:56:11.649Z,78.06
2023-03-12T14:57:11.758Z,79.61
2023-03-12T14:58:11.628Z,80.12
2023-03-12T14:59:11.617Z,79.50
2023-03-12T15:00:11.745Z,79.85
2023-03-12T15:01:11.626Z,80.98
2023-03-12T15:02:11.686Z,80.47
2023-03-12T15:03:12.640Z,81.49
2023-03-12T15:04:12.449Z,80.98
2023-03-12T15:05:11.592Z,80.63
2023-03-12T15:06:11.605Z,80.22
2023-03-12T15:07:11.574Z,79.85
2023-03-12T15:08:11.569Z,80.88
2023-03-12T15:09:11.622Z,80.47
2023-03-12T15:10:11.558Z,80.74
2023-03-12T15:11:11.577Z,80.74
2023-03-12T15:12:11.567Z,79.98
2023-03-12T15:13:11.589Z,79.81
2023-03-12T15:14:11.536Z,80.33
2023-03-12T15:15:11.612Z,80.67
2023-03-12T15:16:11.617Z,82.25
2023-03-12T15:17:11.632Z,81.91
2023-03-12T15:18:12.608Z,81.49
2023-03-12T15:19:11.480Z,82.01
2023-03-12T15:20:12.269Z,82.07
2023-03-12T15:21:11.540Z,80.74
2023-03-12T15:22:11.493Z,79.57
2023-03-12T15:23:11.455Z,79.53
2023-03-12T15:24:11.596Z,78.85
2023-03-12T15:25:11.485Z,78.43
2023-03-12T15:26:11.482Z,77.71
2023-03-12T15:27:11.661Z,77.55
2023-03-12T15:28:11.502Z,78.85
2023-03-12T15:29:11.422Z,79.57
2023-03-12T15:30:11.580Z,79.36
2023-03-12T15:31:11.562Z,79.98
2023-03-12T15:32:11.508Z,80.05
2023-03-12T15:33:11.605Z,81.19
2023-03-12T15:34:11.450Z,81.46
2023-03-12T15:35:11.415Z,80.94
2023-03-12T15:36:11.491Z,81.70
2023-03-12T15:37:11.443Z,81.49
2023-03-12T15:38:11.533Z,81.46
2023-03-12T15:39:11.357Z,81.56
2023-03-12T15:40:11.510Z,80.43
2023-03-12T15:41:11.524Z,80.53
2023-03-12T15:42:11.572Z,80.19
2023-03-12T15:43:11.382Z,80.19
2023-03-12T15:44:11.418Z,80.43
2023-03-12T15:45:11.329Z,80.02
2023-03-12T15:46:11.622Z,81.49
2023-03-12T15:47:11.327Z,82.21
2023-03-12T15:48:11.322Z,81.81
2023-03-12T15:49:11.337Z,81.97
2023-03-12T15:50:11.348Z,81.60
2023-03-12T15:51:11.289Z,81.46
2023-03-12T15:52:11.305Z,80.94
2023-03-12T15:53:11.362Z,81.05
2023-03-12T15:54:11.364Z,80.91
2023-03-12T15:55:11.311Z,80.94
2023-03-12T15:56:11.410Z,81.35
2023-03-12T15:57:11.369Z,81.19
2023-03-12T15:58:11.418Z,81.91
2023-03-12T15:59:11.282Z,81.97
2023-03-12T16:00:11.289Z,81.81
2023-03-12T16:01:11.369Z,82.32
2023-03-12T16:02:11.277Z,82.25
2023-03-12T16:03:11.264Z,83.25
2023-03-12T16:04:11.263Z,83.35
2023-03-12T16:05:11.213Z,82.42
2023-03-12T16:06:11.305Z,81.67
2023-03-12T16:07:11.262Z,82.28
2023-03-12T16:08:11.292Z,82.32
2023-03-12T16:09:11.277Z,83.28
2023-03-12T16:10:11.253Z,83.28
2023-03-12T16:11:11.322Z,83.65
2023-03-12T16:12:11.336Z,82.93
2023-03-12T16:13:11.229Z,82.11
2023-03-12T16:14:12.299Z,83.14
2023-03-12T16:15:11.289Z,83.14
2023-03-12T16:16:11.244Z,83.39
2023-03-12T16:17:11.430Z,83.65
2023-03-12T16:18:11.147Z,82.93
2023-03-12T16:19:11.135Z,83.04
2023-03-12T16:20:11.160Z,83.04
2023-03-12T16:21:11.123Z,82.63
2023-03-12T16:22:11.228Z,83.70
2023-03-12T16:23:11.136Z,83.35
2023-03-12T16:24:11.542Z,83.45
2023-03-12T16:25:12.115Z,83.76
2023-03-12T16:26:12.355Z,82.87
2023-03-12T16:27:13.980Z,83.45
2023-03-12T16:28:12.095Z,82.67
2023-03-12T16:29:11.098Z,83.45
2023-03-12T16:30:11.113Z,83.49
2023-03-12T16:31:11.107Z,83.28
2023-03-12T16:32:11.272Z,83.49
2023-03-12T16:33:11.130Z,84.14
2023-03-12T16:34:12.443Z,84.52
2023-03-12T16:35:11.038Z,84.00
2023-03-12T16:36:11.096Z,83.70
2023-03-12T16:37:11.162Z,84.11
2023-03-12T16:38:11.013Z,84.21
2023-03-12T16:39:11.034Z,84.21
2023-03-12T16:40:11.817Z,84.42
2023-03-12T16:41:11.025Z,85.55
2023-03-12T16:42:11.075Z,84.83
2023-03-12T16:43:11.108Z,85.03
2023-03-12T16:44:11.010Z,83.90
2023-03-12T16:45:10.970Z,83.90
2023-03-12T16:46:11.058Z,83.65
2023-03-12T16:47:10.999Z,83.86
2023-03-12T16:48:11.115Z,83.80
2023-03-12T16:49:10.980Z,84.11
2023-03-12T16:50:10.993Z,84.42
2023-03-12T16:51:10.945Z,84.17
2023-03-12T16:52:10.920Z,83.31
2023-03-12T16:53:12.004Z,83.59
2023-03-12T16:54:12.225Z,84.11
2023-03-12T16:55:12.228Z,84.38
2023-03-12T16:56:10.954Z,84.07
2023-03-12T16:57:12.464Z,83.65
2023-03-12T16:58:10.936Z,83.65
2023-03-12T16:59:10.988Z,84.17
2023-03-12T17:00:10.993Z,83.76
2023-03-12T17:01:11.058Z,83.76
2023-03-12T17:02:11.078Z,83.76
2023-03-12T17:03:10.964Z,83.86
2023-03-12T17:04:11.690Z,84.27
2023-03-12T17:05:10.920Z,85.55
2023-03-12T17:06:10.948Z,84.48
2023-03-12T17:07:10.879Z,84.48
2023-03-12T17:08:11.020Z,85.75
2023-03-12T17:09:10.883Z,85.34
2023-03-12T17:10:11.174Z,85.34
2023-03-12T17:11:10.862Z,85.55
2023-03-12T17:12:10.798Z,85.51
2023-03-12T17:13:11.193Z,84.89
2023-03-12T17:14:11.026Z,84.38
2023-03-12T17:15:11.185Z,84.52
2023-03-12T17:16:10.968Z,84.31
2023-03-12T17:17:10.856Z,85.75
2023-03-12T17:18:10.769Z,85.34
2023-03-12T17:19:10.838Z,85.34
2023-03-12T17:20:10.768Z,85.55
2023-03-12T17:21:10.826Z,86.00
2023-03-12T17:22:10.748Z,85.65
2023-03-12T17:23:10.746Z,85.65
2023-03-12T17:24:11.514Z,85.86
2023-03-12T17:25:10.858Z,85.34
2023-03-12T17:26:10.751Z,85.86
2023-03-12T17:27:10.852Z,86.27
2023-03-12T17:28:10.856Z,86.72
2023-03-12T17:29:10.725Z,86.88
2023-03-12T17:30:10.783Z,85.96
2023-03-12T17:31:10.800Z,85.86
2023-03-12T17:32:10.748Z,86.68
2023-03-12T17:33:10.829Z,85.86
2023-03-12T17:34:10.755Z,85.51
2023-03-12T17:35:11.148Z,85.51
2023-03-12T17:36:10.788Z,85.96
2023-03-12T17:37:11.239Z,85.55
2023-03-12T17:38:10.926Z,85.82
2023-03-12T17:39:10.729Z,85.65
2023-03-12T17:40:10.889Z,85.96
2023-03-12T17:41:25.185Z,86.16
2023-03-12T17:42:12.637Z,86.79
2023-03-12T17:43:10.619Z,86.37
2023-03-12T17:44:10.617Z,86.33
2023-03-12T17:45:10.726Z,85.92
2023-03-12T17:46:10.707Z,86.16
2023-03-12T17:47:10.744Z,86.47
2023-03-12T17:48:10.701Z,86.02
2023-03-12T17:49:10.592Z,87.05
2023-03-12T17:50:10.624Z,86.85
2023-03-12T17:51:10.615Z,86.85
2023-03-12T17:52:10.577Z,86.33
2023-03-12T17:53:10.562Z,86.23
2023-03-12T17:54:10.549Z,86.43
2023-03-12T17:55:11.818Z,86.74
2023-03-12T17:56:11.662Z,86.19
2023-03-12T17:57:10.537Z,86.08
2023-03-12T17:58:10.502Z,86.19
2023-03-12T17:59:10.524Z,86.08
2023-03-12T18:00:10.535Z,86.64
2023-03-12T18:01:12.126Z,86.60
2023-03-12T18:02:10.522Z,86.19
2023-03-12T18:03:10.581Z,86.23
2023-03-12T18:04:10.515Z,86.80
2023-03-12T18:05:11.609Z,86.02
2023-03-12T18:06:10.463Z,86.85
2023-03-12T18:07:10.475Z,87.01
2023-03-12T18:08:10.474Z,86.91
2023-03-12T18:09:10.625Z,86.50
2023-03-12T18:10:10.513Z,86.40
2023-03-12T18:11:10.545Z,86.56
2023-03-12T18:12:10.762Z,86.15
2023-03-12T18:13:10.510Z,86.15
2023-03-12T18:14:10.549Z,85.88
2023-03-12T18:15:10.437Z,86.80
2023-03-12T18:16:10.668Z,86.60
2023-03-12T18:17:10.517Z,86.05
2023-03-12T18:18:10.434Z,86.60
2023-03-12T18:19:10.483Z,86.15
2023-03-12T18:20:10.521Z,86.56
2023-03-12T18:21:10.625Z,86.60
2023-03-12T18:22:10.455Z,86.56
2023-03-12T18:23:10.442Z,86.35
2023-03-12T18:24:14.630Z,86.77
2023-03-12T18:25:11.396Z,86.11
2023-03-12T18:26:10.359Z,85.74
2023-03-12T18:27:10.352Z,85.74
2023-03-12T18:28:10.343Z,86.72
2023-03-12T18:29:10.386Z,86.05
2023-03-12T18:30:10.321Z,86.56
2023-03-12T18:31:10.481Z,86.11
2023-03-12T18:32:10.363Z,86.00
2023-03-12T18:33:10.365Z,85.25
2023-03-12T18:34:10.438Z,85.39
2023-03-12T18:35:10.369Z,85.35
2023-03-12T18:36:10.368Z,85.25
2023-03-12T18:37:10.325Z,85.28
2023-03-12T18:38:10.286Z,85.35
2023-03-12T18:39:10.261Z,85.28
2023-03-12T18:40:10.394Z,85.39
2023-03-12T18:41:10.378Z,85.74
2023-03-12T18:42:10.340Z,86.00
2023-03-12T18:43:10.284Z,86.11
2023-03-12T18:44:10.305Z,86.42
2023-03-12T18:45:10.341Z,86.25
2023-03-12T18:46:10.356Z,86.77
2023-03-12T18:47:10.240Z,86.48
2023-03-12T18:48:10.252Z,86.00
2023-03-12T18:49:10.208Z,86.32
2023-03-12T18:50:10.206Z,86.11
2023-03-12T18:51:10.225Z,86.46
2023-03-12T18:52:10.190Z,86.35
2023-03-12T18:53:10.291Z,86.93
2023-03-12T18:54:10.203Z,86.83
2023-03-12T18:55:10.141Z,86.87
2023-03-12T18:56:10.172Z,87.04
2023-03-12T18:57:11.163Z,87.85
2023-03-12T18:58:10.270Z,87.24
2023-03-12T18:59:10.191Z,87.90
2023-03-12T19:00:10.180Z,88.31
2023-03-12T19:01:10.144Z,88.72
2023-03-12T19:02:10.204Z,87.79
2023-03-12T19:03:10.162Z,88.10
2023-03-12T19:04:10.339Z,88.20
2023-03-12T19:05:10.109Z,87.85
2023-03-12T19:06:10.238Z,87.96
2023-03-12T19:07:10.333Z,88.00
2023-03-12T19:08:12.327Z,87.75
2023-03-12T19:09:11.535Z,87.85
2023-03-12T19:10:10.670Z,87.96
2023-03-12T19:11:10.717Z,87.65
2023-03-12T19:12:10.243Z,87.96
2023-03-12T19:13:10.826Z,87.55
2023-03-12T19:14:10.114Z,87.65
2023-03-12T19:15:10.117Z,87.20
2023-03-12T19:16:10.346Z,86.48
2023-03-12T19:17:11.159Z,87.13
2023-03-12T19:18:11.072Z,87.34
2023-03-12T19:19:10.104Z,87.40
2023-03-12T19:20:10.628Z,87.40
2023-03-12T19:21:10.018Z,87.40
2023-03-12T19:22:11.011Z,87.30
2023-03-12T19:23:10.073Z,86.48
2023-03-12T19:24:10.134Z,86.79
2023-03-12T19:25:10.216Z,86.44
2023-03-12T19:26:10.437Z,86.07
2023-03-12T19:27:10.591Z,86.79
2023-03-12T19:28:10.221Z,86.68
2023-03-12T19:29:10.201Z,86.83
2023-03-12T19:30:10.275Z,86.95
2023-03-12T19:31:10.613Z,86.58
2023-03-12T19:32:10.000Z,86.54
2023-03-12T19:33:10.664Z,86.89
2023-03-12T19:34:10.157Z,86.54
2023-03-12T19:35:10.248Z,86.24
2023-03-12T19:36:09.977Z,86.33
2023-03-12T19:37:10.545Z,86.13
2023-03-12T19:38:10.104Z,86.03
2023-03-12T19:39:20.454Z,86.03
2023-03-12T19:40:11.951Z,85.93
2023-03-12T19:41:10.092Z,85.27
2023-03-12T19:42:09.853Z,85.11
2023-03-12T19:43:10.026Z,85.21
2023-03-12T19:44:09.883Z,85.11
2023-03-12T19:45:09.979Z,85.31
2023-03-12T19:46:09.976Z,85.52
2023-03-12T19:47:10.014Z,85.78
2023-03-12T19:48:10.377Z,85.31
2023-03-12T19:49:09.907Z,84.96
2023-03-12T19:50:09.950Z,85.17
2023-03-12T19:51:09.824Z,85.27
2023-03-12T19:52:09.891Z,84.41
2023-03-12T19:53:09.838Z,84.10
2023-03-12T19:54:10.027Z,83.39
2023-03-12T19:55:09.885Z,84.00
2023-03-12T19:56:10.383Z,83.69
2023-03-12T19:57:10.126Z,83.80
2023-03-12T19:58:09.748Z,83.59
2023-03-12T19:59:10.807Z,83.59
2023-03-12T20:00:09.973Z,83.07
2023-03-12T20:01:09.825Z,83.49
2023-03-12T20:02:09.788Z,83.07
2023-03-12T20:03:09.822Z,83.83
2023-03-12T20:04:09.769Z,83.87
2023-03-12T20:05:09.722Z,84.08
2023-03-12T20:06:09.743Z,85.31
2023-03-12T20:07:09.732Z,85.21
2023-03-12T20:08:09.687Z,85.31
2023-03-12T20:09:09.723Z,85.52
2023-03-12T20:10:09.833Z,85.06
2023-03-12T20:11:10.025Z,84.14
2023-03-12T20:12:09.873Z,84.08
2023-03-12T20:13:09.774Z,85.52
2023-03-12T20:14:09.728Z,85.31
2023-03-12T20:15:09.686Z,85.31
2023-03-12T20:16:09.731Z,85.00
2023-03-12T20:17:09.650Z,85.27
2023-03-12T20:18:09.778Z,84.25
2023-03-12T20:19:09.641Z,84.25
2023-03-12T20:20:09.693Z,83.63
2023-03-12T20:21:09.682Z,83.32
2023-03-12T20:22:10.088Z,82.87
2023-03-12T20:23:09.816Z,82.81
2023-03-12T20:24:09.647Z,83.42
2023-03-12T20:25:09.573Z,83.01
2023-03-12T20:26:09.751Z,83.15
2023-03-12T20:27:09.567Z,83.46
2023-03-12T20:28:11.003Z,83.36
2023-03-12T20:29:09.571Z,83.36
2023-03-12T20:30:09.598Z,83.26
2023-03-12T20:31:09.599Z,82.64
2023-03-12T20:32:09.769Z,83.15
2023-03-12T20:33:09.589Z,83.67
2023-03-12T20:34:09.534Z,83.46
2023-03-12T20:35:09.553Z,84.01
2023-03-12T20:36:09.530Z,84.08
2023-03-12T20:37:09.510Z,84.22
2023-03-12T20:38:09.591Z,84.53
2023-03-12T20:39:09.538Z,84.94
2023-03-12T20:40:09.515Z,85.14
2023-03-12T20:41:09.611Z,85.60
2023-03-12T20:42:09.496Z,85.28
2023-03-12T20:43:09.473Z,85.18
2023-03-12T20:44:09.520Z,85.18
2023-03-12T20:45:09.473Z,85.18
2023-03-12T20:46:09.578Z,85.39
2023-03-12T20:47:09.480Z,85.28
2023-03-12T20:48:09.473Z,85.39
2023-03-12T20:49:09.444Z,85.39
2023-03-12T20:50:09.486Z,86.05
2023-03-12T20:51:09.464Z,86.52
2023-03-12T20:52:09.434Z,86.00
2023-03-12T20:53:09.425Z,86.52
2023-03-12T20:54:10.443Z,86.15
2023-03-12T20:55:09.409Z,86.50
2023-03-12T20:56:09.407Z,86.77
2023-03-12T20:57:09.436Z,86.87
2023-03-12T20:58:09.395Z,87.84
2023-03-12T20:59:09.388Z,87.59
2023-03-12T21:00:09.379Z,87.79
2023-03-12T21:01:09.468Z,87.07
2023-03-12T21:02:09.484Z,87.38
2023-03-12T21:03:15.951Z,87.65
2023-03-12T21:04:09.358Z,87.04
2023-03-12T21:05:09.380Z,86.83
2023-03-12T21:06:09.375Z,86.93
2023-03-12T21:07:09.384Z,86.83
2023-03-12T21:08:09.357Z,87.65
2023-03-12T21:09:09.335Z,87.85
2023-03-12T21:10:09.348Z,87.71
2023-03-12T21:11:09.340Z,87.46
2023-03-12T21:12:09.352Z,86.03
2023-03-12T21:13:09.325Z,86.48
2023-03-12T21:14:09.348Z,86.17
2023-03-12T21:15:09.340Z,85.82
2023-03-12T21:16:09.296Z,85.93
2023-03-12T21:17:09.357Z,85.31
2023-03-12T21:18:09.320Z,85.31
2023-03-12T21:19:09.294Z,84.90
2023-03-12T21:20:09.789Z,85.39
2023-03-12T21:21:10.468Z,85.49
2023-03-12T21:22:09.264Z,85.70
2023-03-12T21:23:09.306Z,86.00
2023-03-12T21:24:09.304Z,86.00
2023-03-12T21:25:09.273Z,85.97
2023-03-12T21:26:09.844Z,85.46
2023-03-12T21:27:10.235Z,85.11
2023-03-12T21:28:09.221Z,85.25
2023-03-12T21:29:09.261Z,85.60
2023-03-12T21:30:09.273Z,85.28
2023-03-12T21:31:09.334Z,85.28
2023-03-12T21:32:09.299Z,85.39
2023-03-12T21:33:09.215Z,85.18
2023-03-12T21:34:09.758Z,85.49
2023-03-12T21:35:10.187Z,85.90
2023-03-12T21:36:09.187Z,85.60
2023-03-12T21:37:09.180Z,85.39
2023-03-12T21:38:09.170Z,85.18
2023-03-12T21:39:09.153Z,85.39
2023-03-12T21:40:09.202Z,85.33
2023-03-12T21:41:09.142Z,85.74
2023-03-12T21:42:09.134Z,86.05
2023-03-12T21:43:09.145Z,86.15
2023-03-12T21:44:09.112Z,86.46
2023-03-12T21:45:09.118Z,86.46
2023-03-12T21:46:09.153Z,86.46
2023-03-12T21:47:09.105Z,86.70
2023-03-12T21:48:09.092Z,86.97
2023-03-12T21:49:09.213Z,86.35
2023-03-12T21:50:09.076Z,86.25
2023-03-12T21:51:09.077Z,86.05
2023-03-12T21:52:09.086Z,86.46
2023-03-12T21:53:22.837Z,86.56
2023-03-12T21:54:11.067Z,85.90
2023-03-12T21:55:09.050Z,86.00
2023-03-12T21:56:09.090Z,85.60
2023-03-12T21:57:09.044Z,85.70
2023-03-12T21:58:09.013Z,85.28
2023-03-12T21:59:09.028Z,85.14
2023-03-12T22:00:09.102Z,85.35
2023-03-12T22:01:09.124Z,85.35
2023-03-12T22:02:09.146Z,84.22
2023-03-12T22:03:09.034Z,84.12
2023-03-12T22:04:09.067Z,83.91
2023-03-12T22:05:08.985Z,83.91
2023-03-12T22:06:09.010Z,84.12
2023-03-12T22:07:08.989Z,83.54
2023-03-12T22:08:09.010Z,84.12
2023-03-12T22:09:08.937Z,83.40
2023-03-12T22:10:09.071Z,83.61
2023-03-12T22:11:08.941Z,83.75
2023-03-12T22:12:08.966Z,84.16
2023-03-12T22:13:08.938Z,84.26
2023-03-12T22:14:08.911Z,84.30
2023-03-12T22:15:08.911Z,84.61
2023-03-12T22:16:09.026Z,85.43
2023-03-12T22:17:08.927Z,85.33
2023-03-12T22:18:08.917Z,85.47
2023-03-12T22:19:08.924Z,85.12
2023-03-12T22:20:08.934Z,85.33
2023-03-12T22:21:08.896Z,85.43
2023-03-12T22:22:08.934Z,85.57
2023-03-12T22:23:08.904Z,85.47
2023-03-12T22:24:08.873Z,85.68
2023-03-12T22:25:08.918Z,85.88
2023-03-12T22:26:08.852Z,85.68
2023-03-12T22:27:08.980Z,85.63
2023-03-12T22:28:08.848Z,85.57
2023-03-12T22:29:08.864Z,85.68
2023-03-12T22:30:08.988Z,85.57
2023-03-12T22:31:08.885Z,85.16
2023-03-12T22:32:08.967Z,85.51
2023-03-12T22:33:08.860Z,85.92
2023-03-12T22:34:08.803Z,85.86
2023-03-12T22:35:08.929Z,86.27
2023-03-12T22:36:08.870Z,86.23
2023-03-12T22:37:08.889Z,86.27
2023-03-12T22:38:08.786Z,86.47
2023-03-12T22:39:08.922Z,86.58
2023-03-12T22:40:08.837Z,86.47
2023-03-12T22:41:08.742Z,86.27
2023-03-12T22:42:08.782Z,86.47
2023-03-12T22:43:08.862Z,86.52
2023-03-12T22:44:08.812Z,86.99
2023-03-12T22:45:08.741Z,86.68
2023-03-12T22:46:08.766Z,87.44
2023-03-12T22:47:08.755Z,87.51
2023-03-12T22:48:08.765Z,87.54
2023-03-12T22:49:08.801Z,87.13
2023-03-12T22:50:08.725Z,87.99
2023-03-12T22:51:08.688Z,88.17
2023-03-12T22:52:08.689Z,89.03
2023-03-12T22:53:08.750Z,88.89
2023-03-12T22:54:08.687Z,88.89
2023-03-12T22:55:08.805Z,88.78
2023-03-12T22:56:08.684Z,89.15
2023-03-12T22:57:08.687Z,88.23
2023-03-12T22:58:08.645Z,87.81
2023-03-12T22:59:08.628Z,87.81
2023-03-12T23:00:08.639Z,87.60
2023-03-12T23:01:08.636Z,87.60
2023-03-12T23:02:08.679Z,86.64
2023-03-12T23:03:08.665Z,86.88
2023-03-12T23:04:08.619Z,87.60
2023-03-12T23:05:08.605Z,86.99
2023-03-12T23:06:08.588Z,86.95
2023-03-12T23:07:14.464Z,86.40
2023-03-12T23:08:10.600Z,86.43
2023-03-12T23:09:08.561Z,86.54
2023-03-12T23:10:08.588Z,86.64
2023-03-12T23:11:08.568Z,86.47
2023-03-12T23:12:08.540Z,86.27
2023-03-12T23:13:08.617Z,86.82
2023-03-12T23:14:08.577Z,88.74
2023-03-12T23:15:08.553Z,88.12
2023-03-12T23:16:08.584Z,88.08
2023-03-12T23:17:08.520Z,87.42
2023-03-12T23:18:08.549Z,87.69
2023-03-12T23:19:08.501Z,86.35
2023-03-12T23:20:08.622Z,85.84
2023-03-12T23:21:08.504Z,85.28
2023-03-12T23:22:08.487Z,84.26
2023-03-12T23:23:08.492Z,85.35
2023-03-12T23:24:08.487Z,83.67
2023-03-12T23:25:08.499Z,83.05
2023-03-12T23:26:08.480Z,83.12
2023-03-12T23:27:08.497Z,82.29
2023-03-12T23:28:08.444Z,82.09
2023-03-12T23:29:08.452Z,82.09
2023-03-12T23:30:08.452Z,81.78
2023-03-12T23:31:08.569Z,82.19
2023-03-12T23:32:08.420Z,81.48
2023-03-12T23:33:08.416Z,81.54
2023-03-12T23:34:08.438Z,81.64
2023-03-12T23:35:08.416Z,81.34
2023-03-12T23:36:08.401Z,81.02
2023-03-12T23:37:08.424Z,81.13
2023-03-12T23:38:08.415Z,80.62
2023-03-12T23:39:08.397Z,81.02
2023-03-12T23:40:08.419Z,81.43
2023-03-12T23:41:08.381Z,81.16
2023-03-12T23:42:08.370Z,81.68
2023-03-12T23:43:08.355Z,81.71
2023-03-12T23:44:08.365Z,82.13
2023-03-12T23:45:08.370Z,82.40
2023-03-12T23:46:08.389Z,82.23
2023-03-12T23:47:08.358Z,82.75
2023-03-12T23:48:08.345Z,82.84
2023-03-12T23:49:08.325Z,82.84
2023-03-12T23:50:08.371Z,82.70
2023-03-12T23:51:08.334Z,81.99
2023-03-12T23:52:08.317Z,81.99
2023-03-12T23:53:08.307Z,81.68
2023-03-12T23:54:08.322Z,83.12
2023-03-12T23:55:08.296Z,82.43
2023-03-12T23:56:08.268Z,83.46
2023-03-12T23:57:08.278Z,82.75
2023-03-12T23:58:08.506Z,82.19
2023-03-12T23:59:08.275Z,82.50
